Time;durP1;ratioP1;P1;durP2;ratioP2;P2;SDS_P1;SDS_P2;PMS_P1;PMS_P2;Temp;Humidity;BMP_temperature;BMP_pressure;BME280_temperature;BME280_humidity;BME280_pressure;Samples;Min_cycle;Max_cycle;Signal;HPM_P1;HPM_P2
2021/03/28 00:02:05;;;;;;;5.73;1.23;;;23.30;98.60;;;;;;5073240;28;20273;-71
2021/03/28 00:05:02;;;;;;;8.77;1.47;;;23.30;98.10;;;;;;5054507;28;20670;-71
2021/03/28 00:07:49;;;;;;;8.57;1.20;;;23.30;98.40;;;;;;5071432;28;20225;-71
2021/03/28 00:11:10;;;;;;;1.50;0.70;;;23.70;97.90;;;;;;5074437;28;20229;-72
2021/03/28 00:13:53;;;;;;;1.77;0.80;;;23.60;96.50;;;;;;5011523;28;20284;-72
2021/03/28 00:16:26;;;;;;;6.93;1.03;;;23.70;96.10;;;;;;5010099;28;20192;-72
2021/03/28 00:19:07;;;;;;;5.00;1.00;;;23.90;95.70;;;;;;5046365;28;20195;-71
2021/03/28 00:21:57;;;;;;;2.93;1.30;;;24.00;97.00;;;;;;5073391;28;20206;-71
2021/03/28 00:25:00;;;;;;;4.63;1.00;;;24.10;96.40;;;;;;5074929;28;20580;-72
2021/03/28 00:27:37;;;;;;;4.83;1.23;;;24.20;96.40;;;;;;4987012;28;20246;-71
2021/03/28 00:30:20;;;;;;;7.87;1.30;;;24.30;96.20;;;;;;5068687;28;20217;-69
2021/03/28 00:32:52;;;;;;;9.97;1.30;;;24.30;95.10;;;;;;5070969;28;20203;-70
2021/03/28 00:35:25;;;;;;;6.13;1.10;;;24.40;95.90;;;;;;5071735;28;20313;-66
2021/03/28 00:38:26;;;;;;;5.00;1.10;;;24.40;96.10;;;;;;5073188;28;20651;-70
2021/03/28 00:41:11;;;;;;;6.60;1.33;;;24.10;96.20;;;;;;5068096;28;20657;-68
2021/03/28 00:43:50;;;;;;;6.20;1.10;;;24.30;95.90;;;;;;5073698;28;20641;-68
2021/03/28 00:46:45;;;;;;;4.03;1.27;;;24.30;96.70;;;;;;5073078;28;20543;-71
2021/03/28 00:49:38;;;;;;;5.03;1.10;;;24.20;97.00;;;;;;5049244;28;20195;-70
2021/03/28 00:52:25;;;;;;;7.37;1.33;;;23.80;97.40;;;;;;5065879;28;20188;-68
2021/03/28 00:55:01;;;;;;;4.93;1.10;;;24.00;97.30;;;;;;5071988;28;20176;-71
2021/03/28 00:57:38;;;;;;;5.10;1.30;;;23.80;97.80;;;;;;5067400;28;20626;-71
2021/03/28 01:00:44;;;;;;;4.17;1.13;;;23.60;98.50;;;;;;5072725;28;20260;-70
2021/03/28 01:03:33;;;;;;;4.70;1.43;;;24.10;97.60;;;;;;5070667;28;20201;-69
2021/03/28 01:06:15;;;;;;;3.57;1.00;;;24.50;96.20;;;;;;5070293;28;20183;-69
2021/03/28 01:08:55;;;;;;;2.70;1.03;;;24.40;95.60;;;;;;5072788;28;20218;-68
2021/03/28 01:11:44;;;;;;;3.70;0.90;;;24.80;91.90;;;;;;5068482;28;20283;-69
2021/03/28 01:14:20;;;;;;;3.23;0.70;;;24.90;90.20;;;;;;5072587;28;20587;-69
2021/03/28 01:17:11;;;;;;;1.87;0.80;;;25.10;90.20;;;;;;5070114;28;20595;-69
2021/03/28 01:20:15;;;;;;;5.53;1.00;;;25.10;90.20;;;;;;5069449;28;20215;-70
2021/03/28 01:22:53;;;;;;;10.83;1.90;;;25.30;90.10;;;;;;5070858;28;20186;-69
2021/03/28 01:25:35;;;;;;;3.47;1.00;;;25.60;92.10;;;;;;5072144;28;20178;-69
2021/03/28 01:28:25;;;;;;;4.53;1.10;;;25.70;91.90;;;;;;5071685;28;20261;-69
2021/03/28 01:31:04;;;;;;;4.07;0.90;;;25.50;92.70;;;;;;5066405;28;20179;-71
2021/03/28 01:33:50;;;;;;;3.10;1.07;;;25.80;89.70;;;;;;5069224;28;20258;-70
2021/03/28 01:36:41;;;;;;;4.47;1.07;;;25.70;88.50;;;;;;5071441;28;20194;-68
2021/03/28 01:39:47;;;;;;;4.20;1.00;;;25.80;89.00;;;;;;5070158;28;20769;-69
2021/03/28 01:42:46;;;;;;;3.50;0.90;;;26.20;85.20;;;;;;5049752;28;20202;-67
2021/03/28 01:45:30;;;;;;;2.90;0.83;;;26.20;82.90;;;;;;5057362;28;20183;-67
2021/03/28 01:48:31;;;;;;;2.33;0.83;;;26.30;80.90;;;;;;5071579;28;20183;-68
2021/03/28 01:51:28;;;;;;;7.80;4.60;;;26.50;78.90;;;;;;5070886;28;20672;-71
2021/03/28 01:54:10;;;;;;;2.83;1.30;;;26.20;78.00;;;;;;5069443;28;20599;-72
2021/03/28 01:57:06;;;;;;;2.53;0.90;;;26.50;80.50;;;;;;5069868;28;20175;-72
2021/03/28 02:00:13;;;;;;;2.70;1.20;;;26.50;78.70;;;;;;5068473;28;20206;-71
2021/03/28 02:03:01;;;;;;;4.20;1.40;;;26.40;84.70;;;;;;5070518;28;20178;-71
2021/03/28 02:05:34;;;;;;;4.03;1.40;;;26.40;88.50;;;;;;5057321;28;20188;-70
2021/03/28 02:08:29;;;;;;;8.03;1.23;;;26.10;90.80;;;;;;5070845;28;20553;-70
2021/03/28 02:11:16;;;;;;;5.63;1.20;;;25.60;91.40;;;;;;5070796;28;20183;-70
2021/03/28 02:14:25;;;;;;;8.80;1.53;;;25.40;91.30;;;;;;5070124;28;20532;-70
2021/03/28 02:17:16;;;;;;;6.73;1.40;;;24.90;92.00;;;;;;5033697;28;20203;-71
2021/03/28 02:20:05;;;;;;;5.73;1.17;;;25.40;91.40;;;;;;5070927;28;20734;-70
2021/03/28 02:23:11;;;;;;;7.40;1.83;;;25.50;91.20;;;;;;5067791;28;20187;-71
2021/03/28 02:26:13;;;;;;;5.20;1.20;;;25.90;91.00;;;;;;5069058;28;20728;-68
2021/03/28 02:28:55;;;;;;;5.00;1.50;;;26.50;90.40;;;;;;5068821;28;20253;-67
2021/03/28 02:31:48;;;;;;;6.07;1.40;;;27.00;89.00;;;;;;5063101;28;20175;-69
2021/03/28 02:34:20;;;;;;;3.93;1.13;;;27.00;88.00;;;;;;5055103;28;20634;-68
2021/03/28 02:37:14;;;;;;;2.83;0.90;;;27.20;84.20;;;;;;5067691;28;20179;-69
2021/03/28 02:40:09;;;;;;;6.67;1.20;;;27.20;83.10;;;;;;5068876;28;20207;-70
2021/03/28 02:43:11;;;;;;;4.23;1.07;;;27.60;85.40;;;;;;5071173;28;20187;-69
2021/03/28 02:45:47;;;;;;;3.23;1.10;;;28.10;83.80;;;;;;5062755;28;20657;-69
2021/03/28 02:48:33;;;;;;;4.17;1.13;;;27.30;83.20;;;;;;5070060;28;20175;-70
2021/03/28 02:51:32;;;;;;;4.20;1.23;;;26.80;83.60;;;;;;5071199;28;20183;-69
2021/03/28 02:54:47;;;;;;;6.47;1.33;;;26.80;85.20;;;;;;5066437;28;20183;-66
2021/03/28 02:57:35;;;;;;;9.07;1.20;;;26.60;84.50;;;;;;5060402;28;20556;-66
2021/03/28 03:00:32;;;;;;;2.53;0.90;;;27.00;84.20;;;;;;5071742;28;20341;-68
2021/03/28 03:03:21;;;;;;;5.17;1.03;;;27.90;82.30;;;;;;5070427;28;20186;-70
2021/03/28 03:05:57;;;;;;;3.27;1.00;;;28.30;80.40;;;;;;5069003;28;20224;-68
2021/03/28 03:08:36;;;;;;;4.03;0.80;;;28.80;78.50;;;;;;5067445;28;20179;-68
2021/03/28 03:11:28;;;;;;;4.43;1.30;;;28.40;81.20;;;;;;5068534;28;20187;-68
2021/03/28 03:14:30;;;;;;;5.40;1.10;;;28.60;79.10;;;;;;5066828;28;20274;-68
2021/03/28 03:17:13;;;;;;;3.27;1.20;;;28.80;77.90;;;;;;5069106;28;20175;-68
2021/03/28 03:20:05;;;;;;;6.60;1.50;;;28.70;79.80;;;;;;5070774;28;20232;-68
2021/03/28 03:22:50;;;;;;;6.40;1.00;;;28.50;81.80;;;;;;5070451;28;20198;-68
2021/03/28 03:25:36;;;;;;;8.67;1.30;;;28.60;82.00;;;;;;5070762;28;20217;-68
2021/03/28 03:28:18;;;;;;;9.53;1.10;;;28.30;80.60;;;;;;5070640;28;20673;-67
2021/03/28 03:30:51;;;;;;;6.87;1.30;;;27.40;83.20;;;;;;5071267;28;20244;-68
2021/03/28 03:33:34;;;;;;;5.70;1.37;;;26.80;84.50;;;;;;5070140;28;20193;-68
2021/03/28 03:36:20;;;;;;;6.07;1.50;;;26.60;85.30;;;;;;5067165;28;20285;-68
2021/03/28 03:39:28;;;;;;;2.23;0.90;;;26.20;85.90;;;;;;5068592;28;20186;-67
2021/03/28 03:42:05;;;;;;;7.40;1.10;;;26.30;85.30;;;;;;5061798;28;20287;-68
2021/03/28 03:45:09;;;;;;;5.20;1.17;;;26.40;86.30;;;;;;5062909;28;20187;-70
2021/03/28 03:47:59;;;;;;;5.73;1.20;;;26.00;89.20;;;;;;5068067;28;20175;-71
2021/03/28 03:50:47;;;;;;;7.93;0.87;;;26.10;89.20;;;;;;5068536;28;20287;-70
2021/03/28 03:53:20;;;;;;;5.40;0.80;;;26.40;88.30;;;;;;5067285;28;20259;-70
2021/03/28 03:55:57;;;;;;;3.10;0.90;;;26.70;86.50;;;;;;5067555;28;20261;-71
2021/03/28 03:59:11;;;;;;;5.20;1.03;;;26.90;84.50;;;;;;5069151;28;20690;-69
2021/03/28 04:02:01;;;;;;;10.87;1.10;;;26.50;85.50;;;;;;5056058;28;20219;-68
2021/03/28 04:04:49;;;;;;;5.03;1.43;;;26.40;85.90;;;;;;5064841;28;20587;-72
2021/03/28 04:08:01;;;;;;;10.37;1.30;;;26.10;86.80;;;;;;5066637;28;20182;-70
2021/03/28 04:10:46;;;;;;;5.40;1.30;;;26.70;86.90;;;;;;5066545;28;20521;-71
2021/03/28 04:13:42;;;;;;;11.53;1.30;;;27.00;87.30;;;;;;5068661;28;20183;-69
2021/03/28 04:16:27;;;;;;;5.00;1.33;;;27.50;85.30;;;;;;5020967;28;20189;-68
2021/03/28 04:19:38;;;;;;;4.63;1.13;;;28.60;82.70;;;;;;5072447;28;20241;-70
2021/03/28 04:22:47;;;;;;;5.50;0.90;;;28.90;80.50;;;;;;5054728;28;20218;-70
2021/03/28 04:25:15;;;;;;;3.70;1.10;;;29.00;80.40;;;;;;5073770;28;20171;-72
2021/03/28 04:28:04;;;;;;;2.63;0.90;;;28.60;82.00;;;;;;5073896;28;20303;-72
2021/03/28 04:30:58;;;;;;;3.43;1.13;;;27.80;82.10;;;;;;5074000;28;20191;-71
2021/03/28 04:33:43;;;;;;;4.80;0.90;;;27.70;83.40;;;;;;5074343;28;20542;-72
2021/03/28 04:36:19;;;;;;;5.73;1.20;;;27.20;84.50;;;;;;5072408;28;20180;-71
2021/03/28 04:39:30;;;;;;;3.97;0.70;;;28.00;82.20;;;;;;5065725;28;20194;-69
2021/03/28 04:42:16;;;;;;;2.83;0.80;;;28.50;79.30;;;;;;5057796;28;20675;-68
2021/03/28 04:44:48;;;;;;;4.37;0.97;;;27.60;80.80;;;;;;5067896;28;20260;-69
2021/03/28 04:47:33;;;;;;;4.33;0.90;;;27.10;81.90;;;;;;5070719;28;20630;-71
2021/03/28 04:50:29;;;;;;;1.67;0.87;;;27.40;82.50;;;;;;5067748;28;20270;-69
2021/03/28 04:53:08;;;;;;;5.03;1.20;;;27.10;81.40;;;;;;5055532;28;20191;-68
2021/03/28 04:56:12;;;;;;;3.00;0.90;;;26.30;83.40;;;;;;5063663;28;20241;-72
2021/03/28 04:58:57;;;;;;;4.03;1.00;;;26.20;84.90;;;;;;5072161;28;20179;-69
2021/03/28 05:02:10;;;;;;;5.27;1.10;;;26.50;85.00;;;;;;5073950;28;20215;-70
2021/03/28 05:05:14;;;;;;;2.87;1.00;;;26.90;84.30;;;;;;5074616;28;20508;-71
2021/03/28 05:08:03;;;;;;;4.03;0.80;;;27.00;82.80;;;;;;5065069;28;20179;-72
2021/03/28 05:10:33;;;;;;;2.97;0.80;;;27.70;81.60;;;;;;5073657;28;20521;-71
2021/03/28 05:13:18;;;;;;;4.60;1.10;;;27.50;81.10;;;;;;5073149;28;20245;-70
2021/03/28 05:16:22;;;;;;;5.17;1.23;;;27.40;82.30;;;;;;5071519;28;20899;-71
2021/03/28 05:19:22;;;;;;;3.77;0.90;;;28.30;80.70;;;;;;5072791;28;20254;-68
2021/03/28 05:22:17;;;;;;;3.53;1.03;;;29.50;77.50;;;;;;5079457;28;20313;-68
2021/03/28 05:25:20;;;;;;;2.78;0.65;;;30.10;75.20;;;;;;5073007;28;20707;-72
2021/03/28 05:27:51;;;;;;;4.00;0.88;;;30.10;73.80;;;;;;5070918;28;20283;-70
2021/03/28 05:30:53;;;;;;;2.10;0.90;;;30.30;73.00;;;;;;5067446;28;20182;-69
2021/03/28 05:33:35;;;;;;;1.92;0.80;;;30.10;73.30;;;;;;5070712;28;20527;-72
2021/03/28 05:36:20;;;;;;;3.13;0.77;;;30.40;73.50;;;;;;5072464;28;20203;-72
2021/03/28 05:39:00;;;;;;;2.47;0.80;;;30.10;73.20;;;;;;5071805;28;20664;-72
2021/03/28 05:41:51;;;;;;;5.47;0.85;;;29.40;73.70;;;;;;5066180;28;20615;-71
2021/03/28 05:44:36;;;;;;;2.83;0.70;;;29.10;72.60;;;;;;5068781;28;20637;-72
2021/03/28 05:47:27;;;;;;;3.03;0.87;;;28.60;72.20;;;;;;5070575;28;20183;-70
2021/03/28 05:50:16;;;;;;;3.00;0.93;;;28.50;71.20;;;;;;5069751;28;20183;-69
2021/03/28 05:53:20;;;;;;;5.30;0.80;;;29.60;71.30;;;;;;5064164;28;20190;-68
2021/03/28 05:59:33;;;;;;;3.23;0.60;;;28.80;71.10;;;;;;5066826;28;20186;-67
2021/03/28 06:02:32;;;;;;;4.88;0.90;;;29.40;70.80;;;;;;5069545;28;20232;-68
2021/03/28 06:05:26;;;;;;;3.42;0.75;;;29.40;69.50;;;;;;5070704;28;20262;-68
2021/03/28 06:08:17;;;;;;;3.90;2.45;;;30.10;67.90;;;;;;5072234;28;20197;-69
2021/03/28 06:10:51;;;;;;;3.28;1.08;;;29.40;69.00;;;;;;5064652;28;20210;-68
2021/03/28 06:14:07;;;;;;;4.07;1.63;;;28.40;70.70;;;;;;5070866;28;20487;-68
2021/03/28 06:16:46;;;;;;;5.13;1.37;;;27.50;73.10;;;;;;5070010;28;20431;-68
2021/03/28 06:19:31;;;;;;;4.80;1.07;;;26.40;74.40;;;;;;5065522;28;20515;-69
2021/03/28 06:22:35;;;;;;;2.53;0.80;;;26.50;74.70;;;;;;5070593;28;20195;-66
2021/03/28 06:25:32;;;;;;;4.43;1.10;;;27.10;73.10;;;;;;5071510;28;20175;-69
2021/03/28 06:28:36;;;;;;;4.10;0.83;;;27.50;72.30;;;;;;5069801;28;20568;-68
2021/03/28 06:31:09;;;;;;;4.53;0.87;;;27.60;73.10;;;;;;5057736;28;20183;-67
2021/03/28 06:33:55;;;;;;;5.30;0.83;;;27.70;71.70;;;;;;5069715;28;20171;-67
2021/03/28 06:36:43;;;;;;;6.93;1.27;;;27.80;72.50;;;;;;5059930;28;20202;-68
2021/03/28 06:39:25;;;;;;;4.53;0.70;;;27.90;72.00;;;;;;5072254;28;20186;-67
2021/03/28 06:42:18;;;;;;;2.77;0.77;;;27.70;73.00;;;;;;5071668;28;20218;-68
2021/03/28 06:45:19;;;;;;;5.30;1.20;;;28.20;73.80;;;;;;5059266;28;20672;-69
2021/03/28 06:48:14;;;;;;;6.27;1.10;;;26.90;78.10;;;;;;5071471;28;20206;-68
2021/03/28 06:51:11;;;;;;;5.13;1.10;;;26.00;82.70;;;;;;5063526;28;20172;-71
2021/03/28 06:53:58;;;;;;;8.63;1.37;;;25.10;87.10;;;;;;5057854;28;20649;-69
2021/03/28 06:56:50;;;;;;;3.97;1.20;;;25.10;87.50;;;;;;5067965;28;20176;-70
2021/03/28 06:59:52;;;;;;;5.23;1.20;;;24.80;88.00;;;;;;5072312;28;20179;-70
2021/03/28 07:03:03;;;;;;;5.83;1.40;;;25.00;88.30;;;;;;5052580;28;20180;-71
2021/03/28 07:06:24;;;;;;;5.93;1.50;;;24.30;90.80;;;;;;5055426;28;20198;-70
2021/03/28 07:09:01;;;;;;;5.47;1.53;;;23.90;92.00;;;;;;5038390;28;20210;-71
2021/03/28 07:11:48;;;;;;;12.80;1.70;;;23.60;92.70;;;;;;5051273;28;20520;-71
2021/03/28 07:14:52;;;;;;;8.33;2.50;;;23.50;93.60;;;;;;5058947;28;20175;-70
2021/03/28 07:17:38;;;;;;;4.60;1.43;;;23.40;94.30;;;;;;5072271;28;20177;-71
2021/03/28 07:20:31;;;;;;;3.73;1.40;;;23.10;94.80;;;;;;5071851;28;20205;-69
2021/03/28 07:23:23;;;;;;;8.17;1.60;;;23.10;95.40;;;;;;5052157;28;20519;-70
2021/03/28 07:26:08;;;;;;;7.93;1.50;;;23.10;95.70;;;;;;5052330;28;20168;-70
2021/03/28 07:29:02;;;;;;;6.13;1.50;;;23.00;95.80;;;;;;5051998;28;20259;-70
2021/03/28 07:32:17;;;;;;;8.80;1.43;;;23.00;96.00;;;;;;5052321;28;20172;-71
2021/03/28 07:35:05;;;;;;;8.97;1.33;;;22.90;96.20;;;;;;5051935;28;20179;-70
2021/03/28 07:37:51;;;;;;;4.57;1.13;;;22.80;96.40;;;;;;5071556;28;20209;-71
2021/03/28 07:40:21;;;;;;;7.03;1.40;;;22.70;96.70;;;;;;5072139;28;20203;-70
2021/03/28 07:43:33;;;;;;;5.10;1.00;;;22.50;96.90;;;;;;5054280;28;20194;-70
2021/03/28 07:46:18;;;;;;;8.37;1.33;;;22.60;97.30;;;;;;5049486;28;20629;-69
2021/03/28 07:49:03;;;;;;;4.37;1.20;;;22.40;97.50;;;;;;5075310;28;20179;-70
2021/03/28 07:51:42;;;;;;;9.73;2.30;;;22.30;98.30;;;;;;5075209;28;20175;-72
2021/03/28 07:54:31;;;;;;;8.53;1.60;;;22.20;98.70;;;;;;5075456;28;20182;-71
2021/03/28 07:57:05;;;;;;;3.60;1.10;;;22.10;99.00;;;;;;5075381;28;20533;-69
2021/03/28 07:59:45;;;;;;;6.17;1.73;;;22.10;99.30;;;;;;5075743;28;20660;-69
2021/03/28 08:02:36;;;;;;;7.93;2.20;;;22.10;99.20;;;;;;5075549;28;20202;-70
2021/03/28 08:05:33;;;;;;;4.70;1.53;;;22.00;99.40;;;;;;5075445;28;20266;-70
2021/03/28 08:08:06;;;;;;;8.83;1.70;;;22.00;99.60;;;;;;5075748;28;20175;-70
2021/03/28 08:11:04;;;;;;;5.93;2.00;;;22.00;99.50;;;;;;5055446;28;20683;-70
2021/03/28 08:13:35;;;;;;;9.47;1.63;;;22.00;99.60;;;;;;5063926;28;20293;-70
2021/03/28 08:16:20;;;;;;;10.60;2.13;;;22.00;99.80;;;;;;5075362;28;20171;-71
2021/03/28 08:19:25;;;;;;;10.60;2.07;;;21.90;99.90;;;;;;5074706;28;20258;-70
2021/03/28 08:22:23;;;;;;;7.00;3.00;;;21.90;99.90;;;;;;5074839;28;20214;-71
2021/03/28 08:25:08;;;;;;;8.07;2.83;;;22.00;99.90;;;;;;5075153;28;20178;-71
2021/03/28 08:27:54;;;;;;;4.57;1.37;;;21.90;99.90;;;;;;5055333;28;20223;-68
2021/03/28 08:30:37;;;;;;;12.57;2.40;;;21.80;99.90;;;;;;5075120;28;20183;-70
2021/03/28 08:33:28;;;;;;;9.83;2.50;;;21.80;99.90;;;;;;5075077;28;20225;-70
2021/03/28 08:36:04;;;;;;;7.03;2.37;;;21.70;99.90;;;;;;5074911;28;20664;-70
2021/03/28 08:38:57;;;;;;;8.67;2.00;;;21.70;99.90;;;;;;5075048;28;20179;-71
2021/03/28 08:41:58;;;;;;;5.33;1.33;;;21.70;99.90;;;;;;5074358;28;20298;-68
2021/03/28 08:44:45;;;;;;;13.80;2.00;;;21.60;99.90;;;;;;5074805;28;20202;-70
2021/03/28 08:47:32;;;;;;;11.20;1.73;;;21.60;99.90;;;;;;5054925;28;20655;-70
2021/03/28 08:50:18;;;;;;;7.23;1.80;;;21.50;99.90;;;;;;5067128;28;20171;-69
2021/03/28 08:53:17;;;;;;;4.43;1.30;;;21.60;99.90;;;;;;5074049;28;20266;-69
2021/03/28 08:56:25;;;;;;;7.67;1.47;;;21.50;99.90;;;;;;5074451;28;20179;-69
2021/03/28 08:59:01;;;;;;;7.07;1.50;;;21.40;99.90;;;;;;5040482;28;20192;-69
2021/03/28 09:02:01;;;;;;;7.20;2.00;;;21.40;99.90;;;;;;5054505;28;20226;-69
2021/03/28 09:05:01;;;;;;;10.77;3.77;;;21.30;99.90;;;;;;5067404;28;20213;-69
2021/03/28 09:07:37;;;;;;;6.60;2.17;;;21.40;99.90;;;;;;5074402;28;20189;-70
2021/03/28 09:11:02;;;;;;;5.77;1.70;;;21.30;99.90;;;;;;5062164;28;20175;-70
2021/03/28 09:13:48;;;;;;;7.50;1.70;;;21.30;99.90;;;;;;5021096;28;20191;-70
2021/03/28 09:16:43;;;;;;;7.30;1.90;;;21.30;99.90;;;;;;5074316;28;20187;-70
2021/03/28 09:19:50;;;;;;;8.50;1.70;;;21.30;99.90;;;;;;5054176;28;20635;-70
2021/03/28 09:22:37;;;;;;;4.97;1.47;;;21.30;99.90;;;;;;5029399;28;20529;-70
2021/03/28 09:25:25;;;;;;;9.50;1.87;;;21.30;99.90;;;;;;5054588;28;20184;-70
2021/03/28 09:28:18;;;;;;;5.90;1.63;;;21.30;99.90;;;;;;5070504;28;20219;-69
2021/03/28 09:31:24;;;;;;;6.23;1.57;;;21.30;99.90;;;;;;5055809;28;20590;-71
2021/03/28 09:34:33;;;;;;;10.87;1.83;;;21.30;99.90;;;;;;5069419;28;20179;-67
2021/03/28 09:37:18;;;;;;;6.97;2.53;;;21.30;99.90;;;;;;5051812;28;20187;-70
2021/03/28 09:40:20;;;;;;;9.77;4.40;;;21.30;99.90;;;;;;5074443;28;20171;-68
2021/03/28 09:43:11;;;;;;;8.90;3.50;;;21.30;99.90;;;;;;5037179;28;20195;-69
2021/03/28 09:45:54;;;;;;;4.53;1.57;;;21.20;99.90;;;;;;5074220;28;20175;-70
2021/03/28 09:48:55;;;;;;;8.17;1.70;;;21.20;99.90;;;;;;5073711;28;20175;-69
2021/03/28 09:51:46;;;;;;;5.80;1.47;;;21.20;99.90;;;;;;5073245;28;20175;-70
2021/03/28 09:54:28;;;;;;;8.33;1.43;;;21.20;99.90;;;;;;5073755;28;20265;-70
2021/03/28 09:57:29;;;;;;;10.43;1.47;;;21.20;99.90;;;;;;5073560;28;20187;-68
2021/03/28 10:00:20;;;;;;;3.90;1.30;;;21.20;99.90;;;;;;5073510;28;20233;-70
2021/03/28 10:02:54;;;;;;;8.07;1.43;;;21.20;99.90;;;;;;5073281;28;20222;-71
2021/03/28 10:05:26;;;;;;;5.70;1.27;;;21.10;99.90;;;;;;5073293;28;20179;-69
2021/03/28 10:07:58;;;;;;;4.63;1.20;;;21.10;99.90;;;;;;5072897;28;20191;-70
2021/03/28 10:10:55;;;;;;;5.87;1.30;;;21.10;99.90;;;;;;5073350;28;20637;-70
2021/03/28 10:13:51;;;;;;;10.50;1.93;;;21.10;99.90;;;;;;5073299;28;20182;-67
2021/03/28 10:16:47;;;;;;;7.33;1.60;;;21.10;99.90;;;;;;5073190;28;20525;-70
2021/03/28 10:19:32;;;;;;;8.57;2.00;;;21.10;99.90;;;;;;5072926;28;20206;-69
2021/03/28 10:22:18;;;;;;;10.67;1.63;;;21.10;99.90;;;;;;5072535;28;20214;-69
2021/03/28 10:24:48;;;;;;;5.60;1.50;;;21.10;99.90;;;;;;5072893;28;20203;-69
2021/03/28 10:27:40;;;;;;;5.20;1.40;;;21.20;99.90;;;;;;5072773;28;20880;-69
2021/03/28 10:30:11;;;;;;;5.77;1.50;;;21.20;99.90;;;;;;5073014;28;20277;-70
2021/03/28 10:32:59;;;;;;;5.13;1.23;;;21.20;99.90;;;;;;5072633;28;20225;-69
2021/03/28 10:35:26;;;;;;;8.37;1.80;;;21.20;99.90;;;;;;5072895;28;20254;-70
2021/03/28 10:38:12;;;;;;;4.70;1.50;;;21.20;99.90;;;;;;5072533;28;20186;-71
2021/03/28 10:40:51;;;;;;;9.27;1.40;;;21.20;99.90;;;;;;5072595;28;20577;-69
2021/03/28 10:43:38;;;;;;;11.20;1.50;;;21.10;99.90;;;;;;5072944;28;20179;-71
2021/03/28 10:46:12;;;;;;;5.90;1.70;;;21.20;99.90;;;;;;5065484;28;20719;-70
2021/03/28 10:49:06;;;;;;;3.40;1.10;;;21.10;99.90;;;;;;5072582;28;20638;-70
2021/03/28 10:51:36;;;;;;;8.10;1.90;;;21.10;99.90;;;;;;5072446;28;20190;-69
2021/03/28 10:54:35;;;;;;;6.90;1.43;;;21.10;99.90;;;;;;5072058;28;20203;-69
2021/03/28 10:57:41;;;;;;;8.07;1.87;;;21.00;99.90;;;;;;5046282;28;20187;-68
2021/03/28 11:00:56;;;;;;;5.83;1.50;;;21.00;99.90;;;;;;5052727;28;20203;-70
2021/03/28 11:03:42;;;;;;;9.17;1.60;;;21.10;99.90;;;;;;5067158;28;20191;-70
2021/03/28 11:06:30;;;;;;;4.57;1.07;;;21.20;99.90;;;;;;5052247;28;20175;-70
2021/03/28 11:09:21;;;;;;;7.83;1.63;;;21.20;99.90;;;;;;5072447;28;20183;-69
2021/03/28 11:12:10;;;;;;;5.50;1.23;;;21.20;99.90;;;;;;5062955;28;20237;-70
2021/03/28 11:14:40;;;;;;;5.20;1.30;;;21.20;99.90;;;;;;5081938;28;20167;-70
2021/03/28 11:18:04;;;;;;;7.73;1.77;;;21.20;99.90;;;;;;5073570;28;20233;-69
2021/03/28 11:20:53;;;;;;;2.90;0.90;;;21.20;99.90;;;;;;5018852;28;20213;-70
2021/03/28 11:23:48;;;;;;;4.23;1.40;;;21.10;99.90;;;;;;5032105;28;20179;-67
2021/03/28 11:26:18;;;;;;;5.00;1.27;;;21.10;99.90;;;;;;5055438;28;20604;-68
2021/03/28 11:29:09;;;;;;;3.90;1.20;;;21.10;99.90;;;;;;5075574;28;20223;-68
2021/03/28 11:32:14;;;;;;;8.70;1.90;;;21.00;99.90;;;;;;5063073;28;20658;-70
2021/03/28 11:35:00;;;;;;;6.67;1.27;;;21.00;99.90;;;;;;5074480;28;20645;-70
2021/03/28 11:37:49;;;;;;;7.10;1.77;;;21.00;99.90;;;;;;5075699;28;20179;-67
2021/03/28 11:40:19;;;;;;;5.37;1.23;;;21.00;99.90;;;;;;5069514;28;20657;-68
2021/03/28 11:42:51;;;;;;;9.80;1.40;;;20.90;99.90;;;;;;5075371;28;20229;-70
2021/03/28 11:45:36;;;;;;;6.47;1.17;;;20.90;99.90;;;;;;5075479;28;20179;-71
2021/03/28 11:48:42;;;;;;;5.03;1.07;;;20.90;99.90;;;;;;5075118;28;20237;-70
2021/03/28 11:51:50;;;;;;;6.40;1.50;;;20.80;99.90;;;;;;5052130;28;20642;-70
2021/03/28 11:54:28;;;;;;;6.90;1.43;;;20.80;99.90;;;;;;5064964;28;20232;-70
2021/03/28 11:57:14;;;;;;;7.53;1.30;;;20.80;99.90;;;;;;5075092;28;20649;-69
2021/03/28 11:59:53;;;;;;;7.37;1.20;;;20.70;99.90;;;;;;5075785;28;20171;-70
2021/03/28 12:02:25;;;;;;;5.23;1.43;;;20.70;99.90;;;;;;5067726;28;20222;-70
2021/03/28 12:04:59;;;;;;;4.87;1.27;;;20.60;99.90;;;;;;5071564;28;20262;-70
2021/03/28 12:07:39;;;;;;;4.97;1.50;;;20.70;99.90;;;;;;5074813;28;20202;-70
2021/03/28 12:10:06;;;;;;;4.40;1.10;;;20.60;99.90;;;;;;5074940;28;20641;-70
2021/03/28 12:12:37;;;;;;;7.03;1.40;;;20.60;99.90;;;;;;5074823;28;20179;-70
2021/03/28 12:15:41;;;;;;;4.37;1.20;;;20.60;99.90;;;;;;5075211;28;20210;-70
2021/03/28 12:18:25;;;;;;;3.60;1.10;;;20.50;99.90;;;;;;5074812;28;20203;-67
2021/03/28 12:21:05;;;;;;;4.83;1.33;;;20.50;99.90;;;;;;5063644;28;20665;-69
2021/03/28 12:23:43;;;;;;;4.50;1.20;;;20.50;99.90;;;;;;5074744;28;20186;-69
2021/03/28 12:26:33;;;;;;;9.00;1.30;;;20.50;99.90;;;;;;5075094;28;20232;-68
2021/03/28 12:29:11;;;;;;;5.70;1.30;;;20.50;99.90;;;;;;5068673;28;20235;-69
2021/03/28 12:31:40;;;;;;;7.27;1.43;;;20.40;99.90;;;;;;5067082;28;20179;-68
2021/03/28 12:34:30;;;;;;;8.10;1.23;;;20.40;99.90;;;;;;5074210;28;20187;-68
2021/03/28 12:37:12;;;;;;;4.43;1.40;;;20.40;99.90;;;;;;5074548;28;20638;-70
2021/03/28 12:39:59;;;;;;;6.50;1.90;;;20.40;99.90;;;;;;5062729;28;20270;-71
2021/03/28 12:42:35;;;;;;;5.17;1.90;;;20.40;99.90;;;;;;5074620;28;20187;-70
2021/03/28 12:45:09;;;;;;;10.87;1.63;;;20.30;99.90;;;;;;5074882;28;20179;-71
2021/03/28 12:47:58;;;;;;;7.47;1.70;;;20.40;99.90;;;;;;5074122;28;20764;-68
2021/03/28 12:50:35;;;;;;;5.37;1.57;;;20.30;99.90;;;;;;5073645;28;20687;-71
2021/03/28 12:53:03;;;;;;;4.53;1.60;;;20.30;99.90;;;;;;5074514;28;20177;-71
2021/03/28 12:55:30;;;;;;;8.77;1.40;;;20.30;99.90;;;;;;5074281;28;20179;-71
2021/03/28 12:58:10;;;;;;;6.07;2.07;;;20.30;99.90;;;;;;5070085;28;20187;-71
2021/03/28 13:00:49;;;;;;;6.40;2.17;;;20.30;99.90;;;;;;5066701;28;20268;-70
2021/03/28 13:03:34;;;;;;;7.97;2.10;;;20.30;99.90;;;;;;5069238;28;20287;-71
2021/03/28 13:06:22;;;;;;;8.17;1.63;;;20.30;99.90;;;;;;5074451;28;20607;-71
2021/03/28 13:08:59;;;;;;;10.33;2.17;;;20.20;99.90;;;;;;5061038;28;20261;-70
2021/03/28 13:11:40;;;;;;;8.77;1.87;;;20.20;99.90;;;;;;5069993;28;20185;-70
2021/03/28 13:14:29;;;;;;;10.33;1.80;;;20.20;99.90;;;;;;5073602;28;20209;-71
2021/03/28 13:17:32;;;;;;;7.50;1.40;;;20.10;99.90;;;;;;5072157;28;20187;-70
2021/03/28 13:20:49;;;;;;;6.87;1.73;;;20.20;99.90;;;;;;5052390;28;20180;-68
2021/03/28 13:23:29;;;;;;;8.77;1.73;;;20.10;99.90;;;;;;5039957;28;20284;-71
2021/03/28 13:26:19;;;;;;;6.63;1.80;;;20.20;99.90;;;;;;5074389;28;20179;-71
2021/03/28 13:29:00;;;;;;;9.10;1.53;;;20.20;99.90;;;;;;5067558;28;20242;-71
2021/03/28 13:31:53;;;;;;;8.13;1.70;;;20.20;99.90;;;;;;5074610;28;20213;-71
2021/03/28 13:35:05;;;;;;;9.27;1.97;;;20.10;99.90;;;;;;5074034;28;20171;-70
2021/03/28 13:37:55;;;;;;;6.60;1.50;;;20.10;99.90;;;;;;5035320;28;20195;-71
2021/03/28 13:40:51;;;;;;;7.80;1.63;;;20.10;99.90;;;;;;5039420;28;20209;-70
2021/03/28 13:43:21;;;;;;;6.40;1.67;;;20.10;99.90;;;;;;5061281;28;20195;-70
2021/03/28 13:45:52;;;;;;;6.37;1.70;;;20.10;99.90;;;;;;5075190;28;20198;-69
2021/03/28 13:48:19;;;;;;;6.53;1.60;;;20.10;99.90;;;;;;5074832;28;20167;-71
2021/03/28 13:51:21;;;;;;;7.73;1.50;;;20.20;99.90;;;;;;5074769;28;20195;-70
2021/03/28 13:53:54;;;;;;;7.30;1.60;;;20.40;99.90;;;;;;5074847;28;20202;-70
2021/03/28 13:56:34;;;;;;;8.27;1.90;;;20.40;99.90;;;;;;5073541;28;20237;-69
2021/03/28 13:59:17;;;;;;;6.07;1.97;;;20.30;99.90;;;;;;5074039;28;20266;-70
2021/03/28 14:01:49;;;;;;;13.90;2.20;;;20.20;99.90;;;;;;5074032;28;20206;-71
2021/03/28 14:04:23;;;;;;;6.60;1.87;;;20.10;99.90;;;;;;5069149;28;20229;-72
2021/03/28 14:07:03;;;;;;;12.33;1.93;;;20.10;99.90;;;;;;5073527;28;20532;-71
2021/03/28 14:09:39;;;;;;;6.13;1.40;;;20.10;99.90;;;;;;5073957;28;20174;-70
2021/03/28 14:12:29;;;;;;;4.73;1.23;;;20.00;99.90;;;;;;5073738;28;20629;-71
2021/03/28 14:15:26;;;;;;;8.67;2.00;;;20.00;99.90;;;;;;5073046;28;20594;-70
2021/03/28 14:18:26;;;;;;;7.70;2.00;;;20.00;99.90;;;;;;5073537;28;20175;-71
2021/03/28 14:21:09;;;;;;;7.20;1.97;;;20.00;99.90;;;;;;5071186;28;20555;-71
2021/03/28 14:23:52;;;;;;;8.60;2.30;;;20.00;99.90;;;;;;5073139;28;20539;-71
2021/03/28 14:26:42;;;;;;;15.47;2.00;;;20.00;99.90;;;;;;5073649;28;20267;-71
2021/03/28 14:29:35;;;;;;;13.43;2.23;;;20.00;99.90;;;;;;5072764;28;20219;-71
2021/03/28 14:32:14;;;;;;;7.47;2.37;;;19.90;99.90;;;;;;5072590;28;20183;-69
2021/03/28 14:34:44;;;;;;;11.57;1.97;;;19.90;99.90;;;;;;5073077;28;20583;-68
2021/03/28 14:37:45;;;;;;;6.83;1.90;;;19.90;99.90;;;;;;5071909;28;20175;-69
2021/03/28 14:40:21;;;;;;;7.20;1.90;;;19.90;99.90;;;;;;5072281;28;20214;-71